Terminal Aerodrome Forecast
Issued by NWS

Home | Current Version | Previous Version | Text Only | Print | Product List | Glossary On
Versions: 1 2 3 4 5 6 7 8 9 10 11 12 13 14 15 16 17 18 19
349
FTUS43 KEAX 210915 AAA
TAFMKC
TAF AMD
KMKC 210915Z 2109/2206 18015G25KT P6SM SCT025
     FM210930 18020G27KT P6SM BKN025
      TEMPO 2117/2121 SCT030
     FM212100 18015G25KT P6SM VCTS OVC030CB
     FM212300 23012G20KT 6SM -TSRA OVC030CB
     FM220200 32010G18KT 6SM -SHRA OVC015=

USA.gov is the U.S. government's official web portal to all federal, state and local government web resources and services.